Saline, MI (48176)

5:19 AM EST on December 21, 2014 (GMT -0500)
Covington Drive | Change Station
CLOSE
Current Station
Personal Weather Station
Location: Saline, MI
Elevation: 810 ft
Nearby Weather Stations

Elev 810 ft 42.15 °N, 83.74 °W | Updated 1 minute ago

Overcast
Overcast
25.7 °F
Feels Like 26 °F
N
0.0
Wind Variable Wind from East
Gusts 0.0 mph

Today
High -- | Low -- °F
--% Chance of Precip.
Yesterday
High -- | Low -- °F
Precip. -- in
8:00 AM 5:06 PM
Waning Crescent, 1% visible
Pressure 30.31 in
Visibility 6.0 miles
Clouds Overcast 3700 ft
Windchill 26 °F
Dew Point 20 °F
Humidity 78%
Rainfall 0.00 in
Snow Depth Not available.
UV 0 out of 12
Pollen .10 out of 12
Air Quality Not available.
Flu Activity Not available.
METAR KARB 210953Z AUTO 00000KT 6SM BR OVC037 M03/M04 A3028 RMK AO2 SLP264 T10331044

More Conditions Fewer Conditions

Pressure 30.31 in
Visibility 6.0 miles
Clouds Overcast 3700 ft
Windchill 26 °F
Dew Point 20 °F
Humidity 78%
Rainfall 0.00 in
Snow Depth Not available.
UV 0 out of 12
Pollen .10 out of 12
Air Quality Not available.
Flu Activity Not available.
METAR KARB 210953Z AUTO 00000KT 6SM BR OVC037 M03/M04 A3028 RMK AO2 SLP264 T10331044

More Conditions Fewer Conditions

10-Day Weather Forecast

Almanac

Astronomy

Dec. 21, 2014 Rise Set
Actual Time
Civil Twilight
Nautical Twilight
Astronomical Twilight
Moon
Length of Visible Light
Length of Day
Tomorrow will be .
, % of the Moon is Illuminated

Today's Extremes

State Highs State Lows

Community

WunderPhotos

Upload Photos

1,779,364 photos uploaded!

WunderBlogs® & News

Nearby

Air Quality

  Air Quality AQ Index Pollutant
Not available.

Snow Depth

Station Depth Elevation

Earthquake Activity

City Distance Mag. Time & Date
Minimum magnitude displayed is 2.5.

Coastal Water Temperatures

Place Temperature

Nearby Weather Stations